LHBP/BUD METAR and TAF weather

Enter ICAO airport designator
Station Type Date Time Source
LHBP METAR 2022/08/12 15:30 UTC NOAA

LHBP 121530Z 07003KT 360V140 CAVOK 29/09 Q1015 NOSIG


Station Type Date Time Source
LHBP Decoded METAR 2022/08/12 15:30 UTC NOAA

Budapest / Ferihegy, Hungary (LHBP) 47-26N 019-16E 185M
Aug 12, 2022 - 11:30 AM EDT / 2022.08.12 1530 UTC
Wind: from the ENE (070 degrees) at 3 MPH (3 KT) (direction variable):0
Visibility: greater than 7 mile(s):0
Temperature: 84 F (29 C)
Dew Point: 48 F (9 C)
Relative Humidity: 28%
Pressure (altimeter): 29.97 in. Hg (1015 hPa)
ob: LHBP 121530Z 07003KT 360V140 CAVOK 29/09 Q1015 NOSIG
cycle: 15

Station Type Date Time Source
LHBP TAF 2022/08/12 12:27 UTC NOAA

TAF TAF LHBP 121115Z 1212/1312 07009KT CAVOK
BECMG 1216/1219 01006KT
TEMPO 1309/1311 SCT045 PROB30
TEMPO 1311/1312 VRB12G25KT 6000 TSRA SHRA SCT040CB BKN090

Example: see airport list